sensor_id;sensor_type;location;lat;lon;timestamp;P1;durP1;ratioP1;P2;durP2;ratioP2
21705;SDS011;11014;53.076;18.208;2024-03-02T00:01:07;75.85;;;38.75;;
21705;SDS011;11014;53.076;18.208;2024-03-02T00:03:46;73.47;;;38.88;;
21705;SDS011;11014;53.076;18.208;2024-03-02T00:06:15;71.72;;;37.15;;
21705;SDS011;11014;53.076;18.208;2024-03-02T00:08:48;75.32;;;38.60;;
21705;SDS011;11014;53.076;18.208;2024-03-02T00:11:16;69.50;;;37.28;;
21705;SDS011;11014;53.076;18.208;2024-03-02T00:13:46;70.45;;;37.70;;
21705;SDS011;11014;53.076;18.208;2024-03-02T00:16:15;68.93;;;38.38;;
21705;SDS011;11014;53.076;18.208;2024-03-02T00:18:46;74.28;;;37.03;;
21705;SDS011;11014;53.076;18.208;2024-03-02T00:21:17;68.97;;;36.88;;
21705;SDS011;11014;53.076;18.208;2024-03-02T00:23:49;71.45;;;37.70;;
21705;SDS011;11014;53.076;18.208;2024-03-02T00:26:20;72.47;;;39.15;;
21705;SDS011;11014;53.076;18.208;2024-03-02T00:28:48;73.00;;;37.53;;
21705;SDS011;11014;53.076;18.208;2024-03-02T00:31:19;72.38;;;38.25;;
21705;SDS011;11014;53.076;18.208;2024-03-02T00:33:48;72.30;;;38.45;;
21705;SDS011;11014;53.076;18.208;2024-03-02T00:36:26;74.60;;;39.03;;
21705;SDS011;11014;53.076;18.208;2024-03-02T00:38:55;73.78;;;37.53;;
21705;SDS011;11014;53.076;18.208;2024-03-02T00:41:29;73.18;;;37.40;;
21705;SDS011;11014;53.076;18.208;2024-03-02T00:46:37;70.30;;;37.95;;
21705;SDS011;11014;53.076;18.208;2024-03-02T00:49:17;72.15;;;36.22;;
21705;SDS011;11014;53.076;18.208;2024-03-02T00:51:50;78.35;;;38.17;;
21705;SDS011;11014;53.076;18.208;2024-03-02T00:54:25;73.35;;;35.70;;
21705;SDS011;11014;53.076;18.208;2024-03-02T00:56:55;70.82;;;37.03;;
21705;SDS011;11014;53.076;18.208;2024-03-02T00:59:26;67.72;;;36.92;;
21705;SDS011;11014;53.076;18.208;2024-03-02T01:01:55;69.93;;;35.67;;
21705;SDS011;11014;53.076;18.208;2024-03-02T01:04:23;75.70;;;37.30;;
21705;SDS011;11014;53.076;18.208;2024-03-02T01:06:52;72.00;;;36.38;;
21705;SDS011;11014;53.076;18.208;2024-03-02T01:09:20;66.40;;;36.20;;
21705;SDS011;11014;53.076;18.208;2024-03-02T01:11:49;71.88;;;36.85;;
21705;SDS011;11014;53.076;18.208;2024-03-02T01:14:18;68.07;;;35.92;;
21705;SDS011;11014;53.076;18.208;2024-03-02T01:16:46;72.85;;;36.78;;
21705;SDS011;11014;53.076;18.208;2024-03-02T01:19:15;71.57;;;37.65;;
21705;SDS011;11014;53.076;18.208;2024-03-02T01:21:44;70.45;;;37.55;;
21705;SDS011;11014;53.076;18.208;2024-03-02T01:24:12;71.57;;;36.85;;
21705;SDS011;11014;53.076;18.208;2024-03-02T01:26:42;69.00;;;38.20;;
21705;SDS011;11014;53.076;18.208;2024-03-02T01:29:10;72.75;;;38.78;;
21705;SDS011;11014;53.076;18.208;2024-03-02T01:31:38;71.00;;;37.20;;
21705;SDS011;11014;53.076;18.208;2024-03-02T01:34:10;64.57;;;36.55;;
21705;SDS011;11014;53.076;18.208;2024-03-02T01:36:39;69.72;;;35.45;;
21705;SDS011;11014;53.076;18.208;2024-03-02T01:39:07;66.30;;;35.78;;
21705;SDS011;11014;53.076;18.208;2024-03-02T01:41:37;69.38;;;36.13;;
21705;SDS011;11014;53.076;18.208;2024-03-02T01:44:06;68.90;;;36.05;;
21705;SDS011;11014;53.076;18.208;2024-03-02T01:46:35;67.65;;;35.25;;
21705;SDS011;11014;53.076;18.208;2024-03-02T01:49:04;67.95;;;35.00;;
21705;SDS011;11014;53.076;18.208;2024-03-02T01:51:33;64.47;;;35.08;;
21705;SDS011;11014;53.076;18.208;2024-03-02T01:54:01;70.10;;;36.42;;
21705;SDS011;11014;53.076;18.208;2024-03-02T01:56:30;65.05;;;35.00;;
21705;SDS011;11014;53.076;18.208;2024-03-02T01:58:58;66.93;;;35.65;;
21705;SDS011;11014;53.076;18.208;2024-03-02T02:01:27;65.03;;;34.47;;
21705;SDS011;11014;53.076;18.208;2024-03-02T02:03:56;67.30;;;34.10;;
21705;SDS011;11014;53.076;18.208;2024-03-02T02:06:25;62.97;;;33.92;;
21705;SDS011;11014;53.076;18.208;2024-03-02T02:08:54;67.35;;;34.65;;
21705;SDS011;11014;53.076;18.208;2024-03-02T02:11:23;61.30;;;34.05;;
21705;SDS011;11014;53.076;18.208;2024-03-02T02:13:53;70.55;;;35.67;;
21705;SDS011;11014;53.076;18.208;2024-03-02T02:16:23;66.65;;;33.92;;
21705;SDS011;11014;53.076;18.208;2024-03-02T02:18:52;66.78;;;33.05;;
21705;SDS011;11014;53.076;18.208;2024-03-02T02:21:24;65.85;;;34.55;;
21705;SDS011;11014;53.076;18.208;2024-03-02T02:23:52;62.50;;;32.38;;
21705;SDS011;11014;53.076;18.208;2024-03-02T02:26:21;68.10;;;34.53;;
21705;SDS011;11014;53.076;18.208;2024-03-02T02:28:49;62.05;;;32.53;;
21705;SDS011;11014;53.076;18.208;2024-03-02T02:31:18;60.75;;;32.35;;
21705;SDS011;11014;53.076;18.208;2024-03-02T02:33:47;59.42;;;32.08;;
21705;SDS011;11014;53.076;18.208;2024-03-02T02:36:16;61.17;;;31.35;;
21705;SDS011;11014;53.076;18.208;2024-03-02T02:38:45;58.47;;;31.88;;
21705;SDS011;11014;53.076;18.208;2024-03-02T02:41:16;61.50;;;31.63;;
21705;SDS011;11014;53.076;18.208;2024-03-02T02:43:44;63.25;;;31.27;;
21705;SDS011;11014;53.076;18.208;2024-03-02T02:46:13;59.58;;;31.10;;
21705;SDS011;11014;53.076;18.208;2024-03-02T02:48:41;61.08;;;30.65;;
21705;SDS011;11014;53.076;18.208;2024-03-02T02:51:10;67.53;;;30.85;;
21705;SDS011;11014;53.076;18.208;2024-03-02T02:53:39;63.88;;;31.13;;
21705;SDS011;11014;53.076;18.208;2024-03-02T02:56:10;65.18;;;30.17;;
21705;SDS011;11014;53.076;18.208;2024-03-02T02:58:39;58.83;;;29.73;;
21705;SDS011;11014;53.076;18.208;2024-03-02T03:01:09;59.65;;;29.45;;
21705;SDS011;11014;53.076;18.208;2024-03-02T03:03:37;55.47;;;28.77;;
21705;SDS011;11014;53.076;18.208;2024-03-02T03:06:06;56.90;;;28.30;;
21705;SDS011;11014;53.076;18.208;2024-03-02T03:08:34;55.58;;;29.25;;
21705;SDS011;11014;53.076;18.208;2024-03-02T03:11:03;55.60;;;28.02;;
21705;SDS011;11014;53.076;18.208;2024-03-02T03:13:33;52.17;;;27.92;;
21705;SDS011;11014;53.076;18.208;2024-03-02T03:16:03;53.88;;;27.83;;
21705;SDS011;11014;53.076;18.208;2024-03-02T03:18:31;50.75;;;28.55;;
21705;SDS011;11014;53.076;18.208;2024-03-02T03:21:00;53.13;;;26.73;;
21705;SDS011;11014;53.076;18.208;2024-03-02T03:23:28;54.22;;;27.40;;
21705;SDS011;11014;53.076;18.208;2024-03-02T03:25:57;47.53;;;25.60;;
21705;SDS011;11014;53.076;18.208;2024-03-02T03:28:25;50.38;;;27.17;;
21705;SDS011;11014;53.076;18.208;2024-03-02T03:30:54;53.15;;;26.55;;
21705;SDS011;11014;53.076;18.208;2024-03-02T03:33:22;52.38;;;26.60;;
21705;SDS011;11014;53.076;18.208;2024-03-02T03:35:51;50.25;;;27.52;;
21705;SDS011;11014;53.076;18.208;2024-03-02T03:38:21;51.50;;;28.02;;
21705;SDS011;11014;53.076;18.208;2024-03-02T03:40:50;44.72;;;26.13;;
21705;SDS011;11014;53.076;18.208;2024-03-02T03:43:18;50.78;;;26.70;;
21705;SDS011;11014;53.076;18.208;2024-03-02T03:45:47;51.22;;;26.70;;
21705;SDS011;11014;53.076;18.208;2024-03-02T03:48:15;53.38;;;26.00;;
21705;SDS011;11014;53.076;18.208;2024-03-02T03:50:44;53.80;;;27.38;;
21705;SDS011;11014;53.076;18.208;2024-03-02T03:53:12;43.50;;;25.27;;
21705;SDS011;11014;53.076;18.208;2024-03-02T03:55:42;46.88;;;25.60;;
21705;SDS011;11014;53.076;18.208;2024-03-02T03:58:11;45.28;;;25.70;;
21705;SDS011;11014;53.076;18.208;2024-03-02T04:00:39;46.58;;;26.25;;
21705;SDS011;11014;53.076;18.208;2024-03-02T04:03:08;49.05;;;26.52;;
21705;SDS011;11014;53.076;18.208;2024-03-02T04:05:37;50.92;;;26.25;;
21705;SDS011;11014;53.076;18.208;2024-03-02T04:08:06;52.30;;;26.05;;
21705;SDS011;11014;53.076;18.208;2024-03-02T04:10:35;47.25;;;25.77;;
21705;SDS011;11014;53.076;18.208;2024-03-02T04:13:03;44.25;;;24.95;;
21705;SDS011;11014;53.076;18.208;2024-03-02T04:15:32;45.97;;;25.02;;
21705;SDS011;11014;53.076;18.208;2024-03-02T04:18:00;45.65;;;25.50;;
21705;SDS011;11014;53.076;18.208;2024-03-02T04:20:29;50.47;;;25.73;;
21705;SDS011;11014;53.076;18.208;2024-03-02T04:22:58;45.13;;;25.65;;
21705;SDS011;11014;53.076;18.208;2024-03-02T04:25:26;40.10;;;23.02;;
21705;SDS011;11014;53.076;18.208;2024-03-02T04:27:55;40.40;;;24.20;;
21705;SDS011;11014;53.076;18.208;2024-03-02T04:30:24;42.10;;;24.33;;
21705;SDS011;11014;53.076;18.208;2024-03-02T04:32:53;39.28;;;23.30;;
21705;SDS011;11014;53.076;18.208;2024-03-02T04:35:22;43.75;;;24.40;;
21705;SDS011;11014;53.076;18.208;2024-03-02T04:37:51;40.95;;;23.63;;
21705;SDS011;11014;53.076;18.208;2024-03-02T04:40:23;44.92;;;24.65;;
21705;SDS011;11014;53.076;18.208;2024-03-02T04:42:51;41.05;;;24.55;;
21705;SDS011;11014;53.076;18.208;2024-03-02T04:45:20;45.78;;;25.38;;
21705;SDS011;11014;53.076;18.208;2024-03-02T04:47:48;48.50;;;25.48;;
21705;SDS011;11014;53.076;18.208;2024-03-02T04:50:17;40.03;;;23.75;;
21705;SDS011;11014;53.076;18.208;2024-03-02T04:52:46;43.17;;;24.88;;
21705;SDS011;11014;53.076;18.208;2024-03-02T04:55:14;40.75;;;24.33;;
21705;SDS011;11014;53.076;18.208;2024-03-02T04:58:01;42.90;;;24.25;;
21705;SDS011;11014;53.076;18.208;2024-03-02T05:00:30;43.20;;;24.90;;
21705;SDS011;11014;53.076;18.208;2024-03-02T05:02:59;42.45;;;24.90;;
21705;SDS011;11014;53.076;18.208;2024-03-02T05:05:28;44.65;;;24.38;;
21705;SDS011;11014;53.076;18.208;2024-03-02T05:07:56;43.55;;;25.00;;
21705;SDS011;11014;53.076;18.208;2024-03-02T05:10:25;44.45;;;24.52;;
21705;SDS011;11014;53.076;18.208;2024-03-02T05:12:54;43.78;;;25.33;;
21705;SDS011;11014;53.076;18.208;2024-03-02T05:15:27;42.70;;;26.05;;
21705;SDS011;11014;53.076;18.208;2024-03-02T05:17:56;42.65;;;25.35;;
21705;SDS011;11014;53.076;18.208;2024-03-02T05:20:26;42.78;;;24.92;;
21705;SDS011;11014;53.076;18.208;2024-03-02T05:22:54;49.58;;;27.27;;
21705;SDS011;11014;53.076;18.208;2024-03-02T05:25:23;43.00;;;25.05;;
21705;SDS011;11014;53.076;18.208;2024-03-02T05:27:51;46.20;;;25.75;;
21705;SDS011;11014;53.076;18.208;2024-03-02T05:30:20;43.22;;;26.20;;
21705;SDS011;11014;53.076;18.208;2024-03-02T05:32:49;43.80;;;25.67;;
21705;SDS011;11014;53.076;18.208;2024-03-02T05:35:17;47.90;;;26.25;;
21705;SDS011;11014;53.076;18.208;2024-03-02T05:37:46;45.10;;;25.75;;
21705;SDS011;11014;53.076;18.208;2024-03-02T05:40:15;44.00;;;25.48;;
21705;SDS011;11014;53.076;18.208;2024-03-02T05:42:43;41.45;;;26.33;;
21705;SDS011;11014;53.076;18.208;2024-03-02T05:45:12;44.40;;;25.42;;
21705;SDS011;11014;53.076;18.208;2024-03-02T05:47:40;42.50;;;25.35;;
21705;SDS011;11014;53.076;18.208;2024-03-02T05:50:09;46.53;;;26.73;;
21705;SDS011;11014;53.076;18.208;2024-03-02T05:52:37;43.92;;;26.92;;
21705;SDS011;11014;53.076;18.208;2024-03-02T05:55:07;42.45;;;25.90;;
21705;SDS011;11014;53.076;18.208;2024-03-02T05:57:35;46.28;;;26.63;;
21705;SDS011;11014;53.076;18.208;2024-03-02T06:00:13;41.95;;;25.35;;
21705;SDS011;11014;53.076;18.208;2024-03-02T06:02:45;47.83;;;27.05;;
21705;SDS011;11014;53.076;18.208;2024-03-02T06:05:14;42.72;;;25.42;;
21705;SDS011;11014;53.076;18.208;2024-03-02T06:07:43;46.53;;;25.73;;
21705;SDS011;11014;53.076;18.208;2024-03-02T06:10:12;45.38;;;26.08;;
21705;SDS011;11014;53.076;18.208;2024-03-02T06:12:41;42.20;;;25.05;;
21705;SDS011;11014;53.076;18.208;2024-03-02T06:15:10;45.40;;;26.52;;
21705;SDS011;11014;53.076;18.208;2024-03-02T06:17:39;44.00;;;25.90;;
21705;SDS011;11014;53.076;18.208;2024-03-02T06:20:08;42.88;;;24.83;;
21705;SDS011;11014;53.076;18.208;2024-03-02T06:22:37;41.53;;;25.85;;
21705;SDS011;11014;53.076;18.208;2024-03-02T06:25:06;48.15;;;26.10;;
21705;SDS011;11014;53.076;18.208;2024-03-02T06:27:35;41.22;;;26.30;;
21705;SDS011;11014;53.076;18.208;2024-03-02T06:30:04;42.45;;;25.13;;
21705;SDS011;11014;53.076;18.208;2024-03-02T06:32:38;39.92;;;24.88;;
21705;SDS011;11014;53.076;18.208;2024-03-02T06:35:06;39.78;;;25.05;;
21705;SDS011;11014;53.076;18.208;2024-03-02T06:37:38;44.58;;;26.65;;
21705;SDS011;11014;53.076;18.208;2024-03-02T06:40:09;45.75;;;26.52;;
21705;SDS011;11014;53.076;18.208;2024-03-02T06:42:38;45.85;;;27.70;;
21705;SDS011;11014;53.076;18.208;2024-03-02T06:45:07;45.22;;;26.98;;
21705;SDS011;11014;53.076;18.208;2024-03-02T06:47:36;46.90;;;29.50;;
21705;SDS011;11014;53.076;18.208;2024-03-02T06:50:04;46.92;;;27.15;;
21705;SDS011;11014;53.076;18.208;2024-03-02T06:52:35;42.75;;;25.75;;
21705;SDS011;11014;53.076;18.208;2024-03-02T06:55:04;45.75;;;26.20;;
21705;SDS011;11014;53.076;18.208;2024-03-02T06:57:33;42.60;;;25.55;;
21705;SDS011;11014;53.076;18.208;2024-03-02T07:00:02;43.15;;;25.58;;
21705;SDS011;11014;53.076;18.208;2024-03-02T07:02:33;44.60;;;26.45;;
21705;SDS011;11014;53.076;18.208;2024-03-02T07:05:02;44.78;;;25.33;;
21705;SDS011;11014;53.076;18.208;2024-03-02T07:07:32;42.72;;;25.70;;
21705;SDS011;11014;53.076;18.208;2024-03-02T07:10:00;41.83;;;25.85;;
21705;SDS011;11014;53.076;18.208;2024-03-02T07:12:29;45.53;;;27.20;;
21705;SDS011;11014;53.076;18.208;2024-03-02T07:14:58;53.70;;;29.27;;
21705;SDS011;11014;53.076;18.208;2024-03-02T07:17:33;52.30;;;30.05;;
21705;SDS011;11014;53.076;18.208;2024-03-02T07:20:02;52.35;;;28.60;;
21705;SDS011;11014;53.076;18.208;2024-03-02T07:22:31;46.47;;;27.73;;
21705;SDS011;11014;53.076;18.208;2024-03-02T07:25:03;50.08;;;27.92;;
21705;SDS011;11014;53.076;18.208;2024-03-02T07:27:32;49.83;;;28.45;;
21705;SDS011;11014;53.076;18.208;2024-03-02T07:30:02;47.88;;;27.23;;
21705;SDS011;11014;53.076;18.208;2024-03-02T07:32:31;47.55;;;27.08;;
21705;SDS011;11014;53.076;18.208;2024-03-02T07:35:00;47.53;;;27.50;;
21705;SDS011;11014;53.076;18.208;2024-03-02T07:37:29;44.63;;;27.73;;
21705;SDS011;11014;53.076;18.208;2024-03-02T07:39:58;44.17;;;27.33;;
21705;SDS011;11014;53.076;18.208;2024-03-02T07:42:26;46.25;;;28.00;;
21705;SDS011;11014;53.076;18.208;2024-03-02T07:44:55;46.38;;;27.27;;
21705;SDS011;11014;53.076;18.208;2024-03-02T07:47:24;47.85;;;27.63;;
21705;SDS011;11014;53.076;18.208;2024-03-02T07:49:52;42.30;;;26.50;;
21705;SDS011;11014;53.076;18.208;2024-03-02T07:52:21;43.08;;;25.67;;
21705;SDS011;11014;53.076;18.208;2024-03-02T07:54:50;41.50;;;25.95;;
21705;SDS011;11014;53.076;18.208;2024-03-02T07:57:18;44.00;;;25.98;;
21705;SDS011;11014;53.076;18.208;2024-03-02T07:59:47;42.85;;;26.05;;
21705;SDS011;11014;53.076;18.208;2024-03-02T08:02:17;39.50;;;24.65;;
21705;SDS011;11014;53.076;18.208;2024-03-02T08:04:46;46.47;;;24.77;;
21705;SDS011;11014;53.076;18.208;2024-03-02T08:07:14;45.70;;;26.70;;
21705;SDS011;11014;53.076;18.208;2024-03-02T08:09:43;41.80;;;25.90;;
21705;SDS011;11014;53.076;18.208;2024-03-02T08:12:11;39.78;;;23.60;;
21705;SDS011;11014;53.076;18.208;2024-03-02T08:14:41;40.63;;;24.77;;
21705;SDS011;11014;53.076;18.208;2024-03-02T08:17:21;39.97;;;23.90;;
21705;SDS011;11014;53.076;18.208;2024-03-02T08:19:50;37.15;;;24.58;;
21705;SDS011;11014;53.076;18.208;2024-03-02T08:22:21;39.10;;;24.23;;
21705;SDS011;11014;53.076;18.208;2024-03-02T08:24:54;39.65;;;23.77;;
21705;SDS011;11014;53.076;18.208;2024-03-02T08:27:26;37.95;;;23.55;;
21705;SDS011;11014;53.076;18.208;2024-03-02T08:29:56;39.33;;;24.20;;
21705;SDS011;11014;53.076;18.208;2024-03-02T08:32:24;38.75;;;24.40;;
21705;SDS011;11014;53.076;18.208;2024-03-02T08:34:53;38.63;;;24.55;;
21705;SDS011;11014;53.076;18.208;2024-03-02T08:37:22;42.78;;;24.30;;
21705;SDS011;11014;53.076;18.208;2024-03-02T08:39:52;38.17;;;23.83;;
21705;SDS011;11014;53.076;18.208;2024-03-02T08:42:20;38.90;;;24.23;;
21705;SDS011;11014;53.076;18.208;2024-03-02T08:44:50;37.55;;;23.90;;
21705;SDS011;11014;53.076;18.208;2024-03-02T08:47:19;38.13;;;23.40;;
21705;SDS011;11014;53.076;18.208;2024-03-02T08:49:49;39.58;;;24.80;;
21705;SDS011;11014;53.076;18.208;2024-03-02T08:52:17;40.75;;;24.70;;
21705;SDS011;11014;53.076;18.208;2024-03-02T08:54:46;37.65;;;23.83;;
21705;SDS011;11014;53.076;18.208;2024-03-02T08:57:14;38.38;;;23.60;;
21705;SDS011;11014;53.076;18.208;2024-03-02T08:59:43;36.50;;;23.40;;
21705;SDS011;11014;53.076;18.208;2024-03-02T09:02:12;37.78;;;23.98;;
21705;SDS011;11014;53.076;18.208;2024-03-02T09:04:41;39.60;;;23.55;;
21705;SDS011;11014;53.076;18.208;2024-03-02T09:07:12;39.97;;;23.95;;
21705;SDS011;11014;53.076;18.208;2024-03-02T09:09:41;36.97;;;23.23;;
21705;SDS011;11014;53.076;18.208;2024-03-02T09:12:09;37.60;;;23.27;;
21705;SDS011;11014;53.076;18.208;2024-03-02T09:14:40;39.17;;;23.20;;
21705;SDS011;11014;53.076;18.208;2024-03-02T09:17:09;37.22;;;23.05;;
21705;SDS011;11014;53.076;18.208;2024-03-02T09:19:39;36.03;;;23.58;;
21705;SDS011;11014;53.076;18.208;2024-03-02T09:22:09;37.28;;;24.75;;
21705;SDS011;11014;53.076;18.208;2024-03-02T09:24:38;40.78;;;25.33;;
21705;SDS011;11014;53.076;18.208;2024-03-02T09:27:07;36.30;;;23.02;;
21705;SDS011;11014;53.076;18.208;2024-03-02T09:29:36;34.63;;;23.48;;
21705;SDS011;11014;53.076;18.208;2024-03-02T09:32:05;34.90;;;22.92;;
21705;SDS011;11014;53.076;18.208;2024-03-02T09:34:34;34.10;;;23.08;;
21705;SDS011;11014;53.076;18.208;2024-03-02T09:37:02;37.17;;;22.75;;
21705;SDS011;11014;53.076;18.208;2024-03-02T09:39:32;36.67;;;23.48;;
21705;SDS011;11014;53.076;18.208;2024-03-02T09:42:01;35.80;;;23.33;;
21705;SDS011;11014;53.076;18.208;2024-03-02T09:44:30;39.08;;;23.40;;
21705;SDS011;11014;53.076;18.208;2024-03-02T09:46:58;36.55;;;23.05;;
21705;SDS011;11014;53.076;18.208;2024-03-02T09:49:27;39.15;;;23.63;;
21705;SDS011;11014;53.076;18.208;2024-03-02T09:51:56;33.67;;;22.10;;
21705;SDS011;11014;53.076;18.208;2024-03-02T09:54:25;37.58;;;23.60;;
21705;SDS011;11014;53.076;18.208;2024-03-02T09:56:54;33.97;;;22.05;;
21705;SDS011;11014;53.076;18.208;2024-03-02T09:59:22;35.88;;;22.48;;
21705;SDS011;11014;53.076;18.208;2024-03-02T10:01:58;33.35;;;21.50;;
21705;SDS011;11014;53.076;18.208;2024-03-02T10:04:29;32.90;;;21.23;;
21705;SDS011;11014;53.076;18.208;2024-03-02T10:07:10;35.38;;;22.70;;
21705;SDS011;11014;53.076;18.208;2024-03-02T10:09:41;31.77;;;21.02;;
21705;SDS011;11014;53.076;18.208;2024-03-02T10:12:11;32.55;;;21.48;;
21705;SDS011;11014;53.076;18.208;2024-03-02T10:14:41;32.50;;;21.67;;
21705;SDS011;11014;53.076;18.208;2024-03-02T10:17:13;33.00;;;21.52;;
21705;SDS011;11014;53.076;18.208;2024-03-02T10:19:43;31.52;;;21.33;;
21705;SDS011;11014;53.076;18.208;2024-03-02T10:22:12;33.25;;;21.88;;
21705;SDS011;11014;53.076;18.208;2024-03-02T10:24:42;32.83;;;21.27;;
21705;SDS011;11014;53.076;18.208;2024-03-02T10:27:15;33.20;;;21.70;;
21705;SDS011;11014;53.076;18.208;2024-03-02T10:29:55;32.55;;;21.80;;
21705;SDS011;11014;53.076;18.208;2024-03-02T10:32:23;32.35;;;21.45;;
21705;SDS011;11014;53.076;18.208;2024-03-02T10:34:52;33.25;;;21.50;;
21705;SDS011;11014;53.076;18.208;2024-03-02T10:37:21;32.92;;;21.25;;
21705;SDS011;11014;53.076;18.208;2024-03-02T10:39:50;35.78;;;22.65;;
21705;SDS011;11014;53.076;18.208;2024-03-02T10:42:20;32.60;;;20.90;;
21705;SDS011;11014;53.076;18.208;2024-03-02T10:44:52;33.65;;;20.50;;
21705;SDS011;11014;53.076;18.208;2024-03-02T10:47:21;31.38;;;20.15;;
21705;SDS011;11014;53.076;18.208;2024-03-02T10:49:51;30.65;;;20.48;;
21705;SDS011;11014;53.076;18.208;2024-03-02T10:52:21;32.38;;;20.92;;
21705;SDS011;11014;53.076;18.208;2024-03-02T10:54:51;35.53;;;23.38;;
21705;SDS011;11014;53.076;18.208;2024-03-02T10:57:21;39.92;;;24.98;;
21705;SDS011;11014;53.076;18.208;2024-03-02T10:59:52;35.97;;;24.25;;
21705;SDS011;11014;53.076;18.208;2024-03-02T11:05:27;38.00;;;24.48;;
21705;SDS011;11014;53.076;18.208;2024-03-02T11:08:02;36.95;;;24.20;;
21705;SDS011;11014;53.076;18.208;2024-03-02T11:10:36;36.45;;;23.65;;
21705;SDS011;11014;53.076;18.208;2024-03-02T11:16:57;34.50;;;24.20;;
21705;SDS011;11014;53.076;18.208;2024-03-02T11:20:30;40.65;;;24.73;;
21705;SDS011;11014;53.076;18.208;2024-03-02T11:23:04;36.80;;;24.25;;
21705;SDS011;11014;53.076;18.208;2024-03-02T11:25:33;39.33;;;24.88;;
21705;SDS011;11014;53.076;18.208;2024-03-02T11:31:56;41.67;;;25.05;;
21705;SDS011;11014;53.076;18.208;2024-03-02T11:34:31;39.08;;;25.15;;
21705;SDS011;11014;53.076;18.208;2024-03-02T11:37:03;38.65;;;24.52;;
21705;SDS011;11014;53.076;18.208;2024-03-02T11:39:32;37.75;;;25.50;;
21705;SDS011;11014;53.076;18.208;2024-03-02T11:42:02;38.28;;;24.58;;
21705;SDS011;11014;53.076;18.208;2024-03-02T11:44:32;39.90;;;26.55;;
21705;SDS011;11014;53.076;18.208;2024-03-02T11:47:01;38.20;;;24.60;;
21705;SDS011;11014;53.076;18.208;2024-03-02T11:49:37;38.47;;;25.77;;
21705;SDS011;11014;53.076;18.208;2024-03-02T11:52:11;42.50;;;27.08;;
21705;SDS011;11014;53.076;18.208;2024-03-02T11:54:41;42.28;;;27.83;;
21705;SDS011;11014;53.076;18.208;2024-03-02T11:57:21;38.20;;;26.02;;
21705;SDS011;11014;53.076;18.208;2024-03-02T11:59:54;39.63;;;25.55;;
21705;SDS011;11014;53.076;18.208;2024-03-02T12:07:02;38.35;;;25.35;;
21705;SDS011;11014;53.076;18.208;2024-03-02T12:16:43;38.13;;;26.63;;
21705;SDS011;11014;53.076;18.208;2024-03-02T12:19:12;39.17;;;26.70;;
21705;SDS011;11014;53.076;18.208;2024-03-02T12:21:43;38.93;;;26.93;;
21705;SDS011;11014;53.076;18.208;2024-03-02T12:24:12;38.60;;;26.52;;
21705;SDS011;11014;53.076;18.208;2024-03-02T12:26:41;38.33;;;26.30;;
21705;SDS011;11014;53.076;18.208;2024-03-02T12:29:10;38.33;;;27.73;;
21705;SDS011;11014;53.076;18.208;2024-03-02T12:31:38;39.90;;;26.45;;
21705;SDS011;11014;53.076;18.208;2024-03-02T12:34:16;39.33;;;27.52;;
21705;SDS011;11014;53.076;18.208;2024-03-02T12:36:46;41.75;;;27.25;;
21705;SDS011;11014;53.076;18.208;2024-03-02T12:41:46;38.90;;;27.55;;
21705;SDS011;11014;53.076;18.208;2024-03-02T12:44:15;36.92;;;25.65;;
21705;SDS011;11014;53.076;18.208;2024-03-02T12:46:43;40.40;;;26.83;;
21705;SDS011;11014;53.076;18.208;2024-03-02T12:49:13;37.75;;;27.50;;
21705;SDS011;11014;53.076;18.208;2024-03-02T12:51:46;39.33;;;27.33;;
21705;SDS011;11014;53.076;18.208;2024-03-02T12:54:21;43.05;;;29.15;;
21705;SDS011;11014;53.076;18.208;2024-03-02T12:56:50;40.38;;;28.50;;
21705;SDS011;11014;53.076;18.208;2024-03-02T12:59:23;41.85;;;28.70;;
21705;SDS011;11014;53.076;18.208;2024-03-02T13:01:55;42.67;;;29.67;;
21705;SDS011;11014;53.076;18.208;2024-03-02T13:04:28;45.97;;;30.38;;
21705;SDS011;11014;53.076;18.208;2024-03-02T13:06:57;42.05;;;30.67;;
21705;SDS011;11014;53.076;18.208;2024-03-02T13:09:27;43.38;;;30.23;;
21705;SDS011;11014;53.076;18.208;2024-03-02T13:11:56;41.03;;;29.88;;
21705;SDS011;11014;53.076;18.208;2024-03-02T13:14:25;39.97;;;28.15;;
21705;SDS011;11014;53.076;18.208;2024-03-02T13:16:54;43.70;;;29.98;;
21705;SDS011;11014;53.076;18.208;2024-03-02T13:19:22;43.47;;;29.58;;
21705;SDS011;11014;53.076;18.208;2024-03-02T13:21:51;43.17;;;28.10;;
21705;SDS011;11014;53.076;18.208;2024-03-02T13:24:20;40.22;;;28.65;;
21705;SDS011;11014;53.076;18.208;2024-03-02T13:29:43;40.88;;;28.30;;
21705;SDS011;11014;53.076;18.208;2024-03-02T13:32:12;41.17;;;28.85;;
21705;SDS011;11014;53.076;18.208;2024-03-02T13:34:40;45.88;;;29.55;;
21705;SDS011;11014;53.076;18.208;2024-03-02T13:37:09;40.72;;;28.02;;
21705;SDS011;11014;53.076;18.208;2024-03-02T13:39:38;48.85;;;30.50;;
21705;SDS011;11014;53.076;18.208;2024-03-02T13:42:10;45.13;;;29.67;;
21705;SDS011;11014;53.076;18.208;2024-03-02T13:44:43;42.47;;;28.90;;
21705;SDS011;11014;53.076;18.208;2024-03-02T13:47:16;43.13;;;29.92;;
21705;SDS011;11014;53.076;18.208;2024-03-02T13:49:45;44.95;;;29.58;;
21705;SDS011;11014;53.076;18.208;2024-03-02T13:52:15;43.13;;;29.70;;
21705;SDS011;11014;53.076;18.208;2024-03-02T13:54:46;46.50;;;29.70;;
21705;SDS011;11014;53.076;18.208;2024-03-02T13:57:15;47.80;;;29.10;;
21705;SDS011;11014;53.076;18.208;2024-03-02T13:59:51;50.28;;;31.38;;
21705;SDS011;11014;53.076;18.208;2024-03-02T14:02:20;42.70;;;29.17;;
21705;SDS011;11014;53.076;18.208;2024-03-02T14:04:49;47.40;;;31.52;;
21705;SDS011;11014;53.076;18.208;2024-03-02T14:07:18;49.63;;;30.58;;
21705;SDS011;11014;53.076;18.208;2024-03-02T14:13:07;47.88;;;30.83;;
21705;SDS011;11014;53.076;18.208;2024-03-02T14:15:38;49.35;;;31.02;;
21705;SDS011;11014;53.076;18.208;2024-03-02T14:18:07;50.67;;;31.73;;
21705;SDS011;11014;53.076;18.208;2024-03-02T14:20:43;51.80;;;33.33;;
21705;SDS011;11014;53.076;18.208;2024-03-02T14:23:13;49.83;;;32.92;;
21705;SDS011;11014;53.076;18.208;2024-03-02T14:25:42;50.67;;;32.22;;
21705;SDS011;11014;53.076;18.208;2024-03-02T14:28:10;51.53;;;32.95;;
21705;SDS011;11014;53.076;18.208;2024-03-02T14:31:00;50.20;;;33.65;;
21705;SDS011;11014;53.076;18.208;2024-03-02T14:33:29;47.45;;;30.23;;
21705;SDS011;11014;53.076;18.208;2024-03-02T14:35:59;47.78;;;30.35;;
21705;SDS011;11014;53.076;18.208;2024-03-02T14:38:27;51.03;;;31.73;;
21705;SDS011;11014;53.076;18.208;2024-03-02T14:41:00;48.53;;;31.38;;
21705;SDS011;11014;53.076;18.208;2024-03-02T14:43:32;47.95;;;30.95;;
21705;SDS011;11014;53.076;18.208;2024-03-02T14:46:01;53.25;;;31.10;;
21705;SDS011;11014;53.076;18.208;2024-03-02T14:48:30;49.17;;;31.65;;
21705;SDS011;11014;53.076;18.208;2024-03-02T14:50:59;52.25;;;31.52;;
21705;SDS011;11014;53.076;18.208;2024-03-02T14:53:48;52.05;;;31.13;;
21705;SDS011;11014;53.076;18.208;2024-03-02T14:56:17;45.50;;;29.25;;
21705;SDS011;11014;53.076;18.208;2024-03-02T14:58:45;46.58;;;29.95;;